Time;durP1;ratioP1;P1;durP2;ratioP2;P2;SDS_P1;SDS_P2;PMS_P1;PMS_P2;Temp;Humidity;BMP_temperature;BMP_pressure;BME280_temperature;BME280_humidity;BME280_pressure;Samples;Min_cycle;Max_cycle;Signal;HPM_P1;HPM_P2
2021/12/15 00:00:37;;;;;;;16.05;10.75;;;7.20;99.90;;;6.28;100.00;102676.66;4129673;28;20117;-70
2021/12/15 00:02:38;;;;;;;15.57;10.23;;;7.10;99.90;;;6.07;100.00;102668.16;4118803;28;20051;-71
2021/12/15 00:04:41;;;;;;;28.20;10.55;;;7.00;99.90;;;6.13;100.00;102673.06;4118802;28;20066;-71
2021/12/15 00:06:43;;;;;;;13.52;9.60;;;7.10;99.90;;;6.16;100.00;102668.59;4134877;28;20406;-71
2021/12/15 00:08:48;;;;;;;13.55;9.40;;;7.00;99.90;;;6.12;100.00;102671.38;4103347;29;20023;-71
2021/12/15 00:10:50;;;;;;;12.57;8.82;;;6.90;99.90;;;6.12;100.00;102671.38;4103487;29;20540;-71
2021/12/15 00:12:52;;;;;;;14.65;8.38;;;7.00;99.90;;;6.25;100.00;102668.94;4104515;28;20030;-71
2021/12/15 00:14:53;;;;;;;13.35;8.35;;;7.00;99.90;;;6.29;100.00;102660.00;4119346;28;20031;-70
2021/12/15 00:16:54;;;;;;;10.68;8.02;;;7.30;99.90;;;6.36;100.00;102671.03;4104491;28;20047;-71
2021/12/15 00:18:56;;;;;;;11.15;7.63;;;7.00;99.90;;;6.40;100.00;102664.66;4118691;28;20089;-71
2021/12/15 00:20:57;;;;;;;10.05;6.88;;;7.10;99.90;;;6.27;100.00;102658.41;4119057;28;20050;-71
2021/12/15 00:22:59;;;;;;;9.95;7.97;;;7.10;99.90;;;6.24;100.00;102669.06;4104424;28;20089;-70
2021/12/15 00:25:00;;;;;;;10.25;6.55;;;7.10;99.90;;;6.27;100.00;102674.97;4119173;28;20051;-71
2021/12/15 00:27:02;;;;;;;9.85;6.72;;;7.10;99.90;;;6.29;100.00;102660.00;4104385;28;20031;-71
2021/12/15 00:29:06;;;;;;;9.63;6.82;;;7.30;99.90;;;6.31;100.00;102660.75;4119145;28;20025;-71
2021/12/15 00:31:07;;;;;;;9.88;6.78;;;7.10;99.90;;;6.37;100.00;102659.59;4118773;28;20026;-70
2021/12/15 00:33:09;;;;;;;10.30;7.25;;;7.00;99.90;;;6.43;100.00;102662.72;4103003;28;20043;-71
2021/12/15 00:35:11;;;;;;;10.10;6.32;;;7.20;99.90;;;6.27;100.00;102661.03;4104193;28;20027;-71
2021/12/15 00:37:12;;;;;;;10.93;7.05;;;7.10;99.90;;;6.26;100.00;102654.94;4118922;28;20521;-70
2021/12/15 00:39:18;;;;;;;9.95;6.80;;;7.10;99.90;;;6.30;100.00;102656.44;4119094;28;20066;-71
2021/12/15 00:41:19;;;;;;;8.13;5.75;;;7.10;99.90;;;6.46;100.00;102661.72;4118825;28;20058;-70
2021/12/15 00:43:20;;;;;;;10.35;6.70;;;7.10;99.90;;;6.39;100.00;102657.75;4118919;28;20038;-71
2021/12/15 00:45:21;;;;;;;10.55;6.50;;;7.20;99.90;;;6.30;100.00;102660.88;4119075;28;20034;-70
2021/12/15 00:47:22;;;;;;;10.57;7.07;;;7.20;99.90;;;6.30;100.00;102656.44;4119271;28;20033;-71
2021/12/15 00:49:25;;;;;;;10.35;6.50;;;7.20;99.90;;;6.54;100.00;102657.75;4118160;28;20027;-71
2021/12/15 00:51:26;;;;;;;10.02;7.10;;;7.20;99.90;;;6.43;100.00;102651.41;4104005;28;20039;-71
2021/12/15 00:53:28;;;;;;;9.50;6.30;;;7.40;99.90;;;6.51;100.00;102654.47;4102890;28;20076;-70
2021/12/15 00:55:30;;;;;;;9.90;6.75;;;7.20;99.90;;;6.41;100.00;102654.13;4115190;28;20126;-71
2021/12/15 00:57:31;;;;;;;11.25;7.32;;;7.20;99.90;;;6.49;100.00;102661.56;4094863;29;20495;-71
2021/12/15 00:59:33;;;;;;;9.98;6.88;;;7.20;99.90;;;6.54;100.00;102656.94;4103917;28;20035;-70
2021/12/15 01:01:36;;;;;;;10.82;6.85;;;7.20;99.90;;;6.56;100.00;102636.69;4103657;29;20041;-70
2021/12/15 01:03:37;;;;;;;9.93;6.72;;;7.30;99.90;;;6.68;100.00;102649.16;4103729;28;20139;-70
2021/12/15 01:05:44;;;;;;;10.80;7.68;;;7.30;99.90;;;6.54;100.00;102647.25;4096666;28;20040;-70
2021/12/15 01:07:46;;;;;;;15.10;9.57;;;7.30;99.90;;;6.43;100.00;102644.38;4113546;28;20030;-71
2021/12/15 01:09:55;;;;;;;14.15;9.02;;;7.30;99.90;;;6.55;100.00;102648.09;4118475;28;20029;-71
2021/12/15 01:21:11;;;;;;;12.75;8.10;;;7.30;99.90;;;6.75;100.00;102647.84;4116275;28;20069;-71
2021/12/15 01:23:18;;;;;;;14.27;8.23;;;7.50;99.90;;;6.73;100.00;102654.13;4102578;29;20023;-70
2021/12/15 01:25:26;;;;;;;13.57;8.43;;;7.40;99.90;;;6.64;100.00;102648.47;4118116;28;20031;-71
2021/12/15 01:27:27;;;;;;;15.73;8.95;;;7.40;99.90;;;6.61;100.00;102653.88;4118325;28;20142;-71
2021/12/15 01:29:28;;;;;;;13.88;8.02;;;7.40;99.90;;;6.64;100.00;102653.72;4121656;28;20030;-71
2021/12/15 01:31:29;;;;;;;11.18;7.95;;;7.40;99.90;;;6.66;100.00;102649.22;4118504;28;20518;-71
2021/12/15 01:33:31;;;;;;;14.95;9.00;;;7.40;99.90;;;6.54;100.00;102644.63;4103491;28;20039;-71
2021/12/15 01:35:39;;;;;;;15.63;9.05;;;7.40;99.90;;;6.47;100.00;102651.16;4103646;29;20471;-71
2021/12/15 01:37:41;;;;;;;14.93;10.48;;;7.40;99.90;;;6.56;100.00;102658.53;4118212;28;20038;-71
2021/12/15 01:39:42;;;;;;;13.93;9.45;;;7.40;99.90;;;6.37;100.00;102663.06;4103858;28;20431;-71
2021/12/15 01:41:43;;;;;;;13.77;8.95;;;7.30;99.90;;;6.35;100.00;102648.34;4103511;29;20046;-71
2021/12/15 01:48:15;;;;;;;18.15;10.50;;;7.20;99.90;;;6.35;100.00;102654.44;4115825;28;20034;-71
2021/12/15 01:50:16;;;;;;;17.75;9.50;;;7.20;99.90;;;6.47;100.00;102645.91;4118403;28;20557;-71
2021/12/15 01:52:24;;;;;;;16.50;9.38;;;7.20;99.90;;;6.46;100.00;102646.00;4103633;28;20035;-71
2021/12/15 01:54:28;;;;;;;14.20;8.80;;;7.30;99.90;;;6.48;100.00;102658.06;4103617;28;20483;-71
2021/12/15 01:56:31;;;;;;;15.48;9.77;;;7.20;99.90;;;6.28;100.00;102647.81;4103577;28;20499;-71
2021/12/15 01:58:32;;;;;;;14.45;9.23;;;7.20;99.90;;;6.37;100.00;102647.34;4103433;29;20039;-71
2021/12/15 02:01:06;;;;;;;14.65;9.55;;;7.10;99.90;;;6.31;100.00;102654.66;4104301;28;20070;-70
2021/12/15 02:03:07;;;;;;;20.13;10.95;;;7.10;99.90;;;6.25;100.00;102661.09;4108151;28;20688;-70
2021/12/15 02:05:10;;;;;;;17.77;10.05;;;7.10;99.90;;;6.27;100.00;102653.16;4120975;28;20066;-71
2021/12/15 02:07:16;;;;;;;13.52;8.63;;;7.10;99.90;;;6.33;100.00;102655.47;4121231;28;20438;-71
2021/12/15 02:10:07;;;;;;;13.73;9.13;;;7.10;99.90;;;6.47;100.00;102661.66;4106517;28;20039;-71
2021/12/15 02:11:43;;;;;;;16.38;9.85;;;7.20;99.90;;;6.35;100.00;102654.44;4118288;28;20035;-71
2021/12/15 02:13:44;;;;;;;18.08;10.68;;;7.20;99.90;;;6.42;100.00;102654.97;4105278;29;20038;-70
2021/12/15 02:15:51;;;;;;;16.10;10.70;;;7.30;99.90;;;6.61;100.00;102666.97;4120959;28;20030;-71
2021/12/15 02:17:53;;;;;;;18.33;10.23;;;7.30;99.90;;;6.54;100.00;102657.75;4136605;28;20117;-71
2021/12/15 02:19:54;;;;;;;15.45;9.90;;;7.30;99.90;;;6.43;100.00;102662.72;4094529;29;20026;-71
2021/12/15 02:21:55;;;;;;;15.27;10.30;;;7.20;99.90;;;6.28;100.00;102649.59;4104772;28;20038;-71
2021/12/15 02:23:59;;;;;;;14.32;9.50;;;7.20;99.90;;;6.28;100.00;102660.94;4100682;29;20094;-71
2021/12/15 02:26:07;;;;;;;18.03;11.03;;;7.20;99.90;;;6.34;100.00;102663.22;4120745;28;20023;-71
2021/12/15 02:28:09;;;;;;;17.10;11.27;;;7.20;99.90;;;6.33;100.00;102660.69;4120521;28;20442;-71
2021/12/15 02:32:55;;;;;;;20.42;10.60;;;7.10;99.90;;;6.25;100.00;102652.38;4105906;28;20039;-71
2021/12/15 02:37:17;;;;;;;17.48;10.82;;;7.20;99.90;;;6.44;100.00;102647.84;4105859;29;20045;-71
2021/12/15 02:39:18;;;;;;;17.45;10.80;;;7.20;99.90;;;6.31;100.00;102642.41;4104958;28;20570;-70
2021/12/15 02:41:20;;;;;;;17.17;11.05;;;7.20;99.90;;;6.55;100.00;102648.09;4104613;28;20412;-71
2021/12/15 02:43:21;;;;;;;17.67;11.52;;;7.20;99.90;;;6.41;100.00;102640.16;4120709;28;20474;-71
2021/12/15 02:45:26;;;;;;;18.17;10.90;;;7.20;99.90;;;6.39;100.00;102647.25;4104508;28;20035;-71
2021/12/15 02:47:30;;;;;;;17.92;11.30;;;7.10;99.90;;;6.49;100.00;102659.78;4120401;28;20023;-70
2021/12/15 02:49:32;;;;;;;18.25;10.63;;;7.20;99.90;;;6.64;100.00;102656.31;4105581;28;20550;-71
2021/12/15 02:51:35;;;;;;;19.50;11.05;;;7.20;99.90;;;6.63;100.00;102657.25;4105801;28;20082;-70
2021/12/15 02:53:37;;;;;;;18.05;10.48;;;7.40;99.90;;;6.61;100.00;102653.88;4105659;28;20035;-70
2021/12/15 02:55:38;;;;;;;21.10;11.10;;;7.40;99.90;;;6.58;100.00;102656.66;4105796;28;20562;-71
2021/12/15 02:57:40;;;;;;;12.60;9.20;;;7.30;99.90;;;6.50;100.00;102640.50;4105735;28;20122;-71
2021/12/15 03:00:04;;;;;;;20.42;10.52;;;7.30;99.90;;;6.46;100.00;102659.09;4105686;28;20031;-71
2021/12/15 03:02:24;;;;;;;18.17;11.18;;;7.30;99.90;;;6.41;100.00;102648.88;4118646;28;20117;-70
2021/12/15 03:04:41;;;;;;;18.75;11.57;;;7.20;99.90;;;6.40;100.00;102652.41;4117842;28;20098;-71
2021/12/15 03:06:56;;;;;;;23.08;11.70;;;7.20;99.90;;;6.36;100.00;102640.38;4118633;28;20122;-70
2021/12/15 03:16:08;;;;;;;18.67;10.63;;;7.30;99.90;;;6.40;100.00;102651.56;4105662;29;20041;-71
2021/12/15 03:18:25;;;;;;;18.92;11.30;;;7.30;99.90;;;6.41;100.00;102646.25;4105279;28;20398;-70
2021/12/15 03:20:53;;;;;;;20.73;10.50;;;7.30;99.90;;;6.32;100.00;102659.84;4120202;28;20042;-71
2021/12/15 03:22:56;;;;;;;18.08;10.45;;;7.20;99.90;;;6.37;100.00;102656.97;4117335;28;20067;-70
2021/12/15 03:24:57;;;;;;;19.08;11.32;;;7.20;99.90;;;6.16;100.00;102653.72;4105335;28;20039;-70
2021/12/15 03:27:05;;;;;;;18.00;10.13;;;7.20;99.90;;;6.21;100.00;102662.19;4120339;28;20031;-70
2021/12/15 03:34:11;;;;;;;20.10;11.85;;;7.00;99.90;;;6.19;100.00;102658.78;4104947;29;20039;-71
2021/12/15 03:36:23;;;;;;;21.00;12.57;;;7.10;99.90;;;6.27;100.00;102637.44;4117323;28;20035;-71
2021/12/15 03:38:26;;;;;;;20.77;11.80;;;7.00;99.90;;;6.23;100.00;102655.09;4105295;28;20031;-70
2021/12/15 03:40:40;;;;;;;26.45;12.82;;;7.10;99.90;;;6.26;100.00;102643.59;4105013;29;20027;-70
2021/12/15 03:42:46;;;;;;;;;;;7.20;99.90;;;6.34;100.00;102657.13;4105506;28;20035;-71
2021/12/15 03:44:48;;;;;;;;;;;7.10;99.90;;;6.45;100.00;102639.91;4105519;28;19910;-71
2021/12/15 03:46:50;;;;;;;20.83;11.27;;;7.20;99.90;;;6.37;100.00;102643.84;4104251;28;19910;-71
2021/12/15 03:48:51;;;;;;;20.95;12.20;;;7.20;99.90;;;6.51;100.00;102654.47;4104630;28;20035;-71
2021/12/15 03:50:56;;;;;;;18.10;11.43;;;7.20;99.90;;;6.47;100.00;102648.53;4119833;28;20053;-71
2021/12/15 03:52:57;;;;;;;21.48;12.23;;;7.20;99.90;;;6.58;100.00;102648.78;4119511;28;20533;-70
2021/12/15 03:54:58;;;;;;;20.33;12.95;;;7.30;99.90;;;6.49;100.00;102651.06;4104891;28;20027;-71
2021/12/15 03:56:59;;;;;;;21.25;11.63;;;7.20;99.90;;;6.59;100.00;102642.63;4119521;28;20054;-71
2021/12/15 03:59:00;;;;;;;16.70;11.48;;;7.30;99.90;;;6.45;100.00;102645.13;4119912;28;20070;-70
2021/12/15 04:01:13;;;;;;;19.70;10.77;;;7.20;99.90;;;6.48;100.00;102646.78;4119587;28;20034;-70
2021/12/15 04:03:25;;;;;;;17.60;11.30;;;7.30;99.90;;;6.41;100.00;102641.00;4135029;28;20057;-71
2021/12/15 04:05:27;;;;;;;19.17;10.90;;;7.30;99.90;;;6.47;100.00;102648.53;4123789;28;20049;-70
2021/12/15 04:07:27;;;;;;;20.83;11.18;;;7.20;99.90;;;6.43;100.00;102644.38;4104869;28;20505;-70
2021/12/15 04:09:29;;;;;;;16.13;9.90;;;7.20;99.90;;;6.45;100.00;102646.94;4104656;29;20027;-71
2021/12/15 04:11:34;;;;;;;18.67;10.50;;;7.30;99.90;;;6.41;100.00;102640.16;4103412;28;20028;-70
2021/12/15 04:13:36;;;;;;;25.65;11.10;;;7.30;99.90;;;6.25;100.00;102641.91;4104831;28;20031;-70
2021/12/15 04:15:46;;;;;;;19.25;10.32;;;7.10;99.90;;;6.30;100.00;102632.84;4104593;28;20027;-70
2021/12/15 04:17:49;;;;;;;21.10;11.55;;;7.10;99.90;;;6.26;100.00;102633.97;4117940;28;20398;-71
2021/12/15 04:19:50;;;;;;;16.50;10.25;;;7.10;99.90;;;6.35;100.00;102638.72;4103215;28;20031;-71
2021/12/15 04:21:51;;;;;;;18.10;11.43;;;7.10;99.90;;;6.43;100.00;102646.16;4119001;28;20586;-71
2021/12/15 04:23:55;;;;;;;21.95;13.07;;;7.10;99.90;;;6.41;100.00;102648.88;4102761;28;20023;-71
2021/12/15 04:25:58;;;;;;;19.15;11.23;;;7.20;99.90;;;6.45;100.00;102639.06;4119275;28;20031;-71
2021/12/15 04:28:02;;;;;;;19.27;11.45;;;7.10;99.90;;;6.49;100.00;102651.06;4118988;28;20038;-71
2021/12/15 04:30:07;;;;;;;41.40;12.55;;;7.20;99.90;;;6.34;100.00;102649.25;4096425;29;20031;-71
2021/12/15 04:32:35;;;;;;;20.80;11.73;;;7.20;99.90;;;6.39;100.00;102649.88;4103245;28;20050;-70
2021/12/15 04:34:36;;;;;;;18.98;11.70;;;7.10;99.90;;;6.29;100.00;102652.16;4093710;29;20035;-70
2021/12/15 04:36:43;;;;;;;18.40;11.65;;;7.20;99.90;;;6.42;100.00;102642.69;4103171;29;20031;-70
2021/12/15 04:38:45;;;;;;;23.33;12.45;;;7.20;99.90;;;6.45;100.00;102639.91;4118848;28;20057;-71
2021/12/15 04:40:46;;;;;;;24.52;13.52;;;7.20;99.90;;;6.42;100.00;102639.25;4118761;28;20027;-71
2021/12/15 04:42:48;;;;;;;23.15;12.65;;;7.20;99.90;;;6.48;100.00;102644.97;4104106;28;20023;-71
2021/12/15 04:44:51;;;;;;;27.05;12.60;;;7.20;99.90;;;6.42;100.00;102650.53;4118941;28;20030;-71
2021/12/15 04:47:04;;;;;;;30.65;13.38;;;7.20;99.90;;;6.45;100.00;102639.06;4104098;28;20439;-71
2021/12/15 04:49:09;;;;;;;25.43;13.80;;;7.20;99.90;;;6.35;100.00;102637.88;4104130;28;20530;-71
2021/12/15 04:51:10;;;;;;;30.77;13.75;;;7.20;99.90;;;6.35;100.00;102638.72;4104244;28;20050;-70
2021/12/15 04:53:11;;;;;;;23.17;12.93;;;7.10;99.90;;;6.33;100.00;102651.03;4104087;29;20443;-71
2021/12/15 04:55:13;;;;;;;23.73;13.68;;;7.20;99.90;;;6.36;100.00;102643.00;4103978;29;20023;-71
2021/12/15 04:57:17;;;;;;;37.22;14.25;;;7.10;99.90;;;6.23;100.00;102638.53;4119032;28;20394;-70
2021/12/15 04:59:19;;;;;;;25.15;13.38;;;7.10;99.90;;;6.31;100.00;102649.44;4104097;28;20526;-70
2021/12/15 05:01:24;;;;;;;29.27;13.32;;;7.40;99.90;;;6.30;100.00;102635.47;4103996;28;20086;-70
2021/12/15 05:03:25;;;;;;;29.55;13.07;;;7.20;99.90;;;6.08;100.00;102641.03;4118125;28;20035;-70
2021/12/15 05:05:29;;;;;;;31.50;12.90;;;7.20;99.90;;;6.12;100.00;102649.59;4118556;28;20120;-70
2021/12/15 05:07:30;;;;;;;24.73;13.23;;;7.10;99.90;;;6.10;100.00;102648.78;4102688;28;20488;-70
2021/12/15 05:09:31;;;;;;;21.10;12.98;;;7.00;99.90;;;6.18;100.00;102645.78;4102733;29;20035;-70
2021/12/15 05:11:33;;;;;;;24.17;13.02;;;7.00;99.90;;;6.19;100.00;102650.94;4118733;28;20027;-70
2021/12/15 05:13:36;;;;;;;23.60;13.93;;;7.10;99.90;;;6.25;100.00;102653.22;4118901;28;20037;-70
2021/12/15 05:15:37;;;;;;;23.88;13.98;;;7.10;99.90;;;6.23;100.00;102662.97;4104082;28;20027;-70
2021/12/15 05:17:38;;;;;;;19.23;12.90;;;7.00;99.90;;;6.28;100.00;102653.06;4103642;28;20043;-70
2021/12/15 05:19:39;;;;;;;28.92;13.88;;;7.10;99.90;;;6.13;100.00;102652.09;4118592;28;20113;-70
2021/12/15 05:21:41;;;;;;;23.33;13.23;;;7.00;99.90;;;6.18;100.00;102651.03;4118625;28;20118;-70
2021/12/15 05:23:45;;;;;;;26.67;13.00;;;7.10;99.90;;;6.15;100.00;102657.28;4127388;28;20022;-70
2021/12/15 05:25:48;;;;;;;24.13;14.13;;;7.00;99.90;;;6.04;100.00;102655.22;4134461;28;20030;-70
2021/12/15 05:27:49;;;;;;;28.85;16.13;;;7.00;99.90;;;6.08;100.00;102661.13;4134420;28;20110;-70
2021/12/15 05:29:51;;;;;;;30.30;15.40;;;7.00;99.90;;;5.97;100.00;102658.25;4102629;29;20034;-70
2021/12/15 05:31:53;;;;;;;30.00;15.13;;;6.90;99.90;;;5.96;100.00;102662.63;4102596;29;20035;-70
2021/12/15 05:33:54;;;;;;;28.90;16.27;;;6.90;99.90;;;6.04;100.00;102656.97;4102361;29;20069;-70
2021/12/15 05:35:56;;;;;;;30.13;16.83;;;6.90;99.90;;;5.98;100.00;102662.53;4105574;28;20463;-70
2021/12/15 05:37:59;;;;;;;35.30;15.95;;;6.80;99.90;;;5.98;100.00;102655.53;4106901;28;20035;-70
2021/12/15 05:40:00;;;;;;;31.85;16.65;;;6.80;99.90;;;6.06;100.00;102653.34;4121606;28;20034;-70
2021/12/15 05:42:02;;;;;;;33.30;17.08;;;6.80;99.90;;;5.99;100.00;102659.84;4093569;29;20040;-70
2021/12/15 05:44:06;;;;;;;35.45;16.77;;;6.90;99.90;;;5.97;100.00;102653.00;4106068;29;20028;-70
2021/12/15 05:46:07;;;;;;;31.75;16.30;;;6.80;99.90;;;5.98;100.00;102654.69;4106860;28;20031;-70
2021/12/15 05:48:12;;;;;;;51.58;16.95;;;6.90;99.90;;;6.03;100.00;102656.13;4106464;28;20118;-70
2021/12/15 05:50:14;;;;;;;39.55;14.98;;;6.80;99.90;;;6.06;100.00;102665.63;4121285;28;20101;-70
2021/12/15 05:52:15;;;;;;;33.47;18.33;;;6.90;99.90;;;5.98;100.00;102660.78;4121585;28;20027;-70
2021/12/15 05:54:17;;;;;;;29.60;16.20;;;6.90;99.90;;;6.01;100.00;102667.63;4121554;28;20035;-70
2021/12/15 05:56:18;;;;;;;27.90;17.05;;;6.90;99.90;;;6.03;100.00;102669.22;4121445;28;20503;-70
2021/12/15 05:58:20;;;;;;;28.27;15.90;;;6.80;99.90;;;5.89;100.00;102666.47;4121289;28;20093;-70
2021/12/15 06:00:26;;;;;;;38.35;16.50;;;6.80;99.90;;;5.70;100.00;102664.84;4105518;29;20035;-70
2021/12/15 06:02:27;;;;;;;33.22;18.30;;;6.80;99.90;;;5.70;100.00;102665.72;4121111;28;20035;-70
2021/12/15 06:04:28;;;;;;;30.45;16.10;;;6.70;99.90;;;5.71;100.00;102672.63;4105993;28;20041;-70
2021/12/15 06:06:29;;;;;;;37.78;17.67;;;6.60;99.90;;;5.68;100.00;102666.69;4106268;28;20399;-71
2021/12/15 06:08:30;;;;;;;35.67;17.35;;;6.60;99.90;;;5.78;100.00;102678.41;4121283;28;20033;-70
2021/12/15 06:10:35;;;;;;;30.17;16.83;;;6.60;99.90;;;5.84;100.00;102684.19;4121211;28;20035;-71
2021/12/15 06:12:38;;;;;;;38.20;18.80;;;6.70;99.90;;;5.82;100.00;102680.81;4120697;28;20050;-71
2021/12/15 06:14:39;;;;;;;38.08;18.30;;;6.70;99.90;;;5.87;100.00;102678.81;4121018;28;20058;-71
2021/12/15 06:16:40;;;;;;;33.38;19.50;;;6.70;99.90;;;5.79;100.00;102685.34;4105062;28;20031;-70
2021/12/15 06:18:41;;;;;;;32.58;17.90;;;6.60;99.90;;;5.94;100.00;102679.34;4120775;28;20026;-71
2021/12/15 06:20:44;;;;;;;33.67;17.35;;;6.70;99.90;;;6.02;100.00;102682.41;4120771;28;20035;-70
2021/12/15 06:22:46;;;;;;;32.90;17.60;;;6.70;99.90;;;6.02;100.00;102677.19;4106006;28;20058;-71
2021/12/15 06:24:47;;;;;;;29.92;17.10;;;6.80;99.90;;;6.00;100.00;102687.72;4104807;28;20032;-71
2021/12/15 06:26:49;;;;;;;31.95;15.27;;;6.70;99.90;;;6.02;100.00;102685.88;4106181;28;20027;-71
2021/12/15 06:28:50;;;;;;;32.35;17.00;;;6.70;99.90;;;6.07;100.00;102691.72;4120828;28;20042;-70
2021/12/15 06:30:52;;;;;;;29.38;16.45;;;6.80;99.90;;;6.08;100.00;102687.34;4136859;28;20022;-70
2021/12/15 06:32:53;;;;;;;29.52;16.92;;;6.90;99.90;;;6.06;100.00;102689.19;4109177;28;20069;-70
2021/12/15 06:34:54;;;;;;;33.33;17.17;;;6.80;99.90;;;6.10;100.00;102693.34;4106010;28;20023;-70
2021/12/15 06:36:57;;;;;;;26.50;14.52;;;6.80;99.90;;;6.09;100.00;102699.53;4120718;28;20030;-70
2021/12/15 06:38:58;;;;;;;26.85;15.82;;;6.80;99.90;;;5.99;100.00;102693.06;4120490;28;20038;-70
2021/12/15 06:40:59;;;;;;;26.23;14.57;;;6.90;99.90;;;5.98;100.00;102686.09;4120786;28;20406;-70
2021/12/15 06:43:00;;;;;;;26.48;15.52;;;6.80;99.90;;;5.93;100.00;102690.75;4120553;28;20035;-70
2021/12/15 06:45:03;;;;;;;27.10;15.50;;;6.70;99.90;;;6.00;100.00;102689.53;4104550;28;20034;-70
2021/12/15 06:57:17;;;;;;;22.92;13.43;;;6.90;99.90;;;5.93;100.00;102694.22;4105191;28;20070;-70
2021/12/15 06:58:53;;;;;;;23.40;13.43;;;6.80;99.90;;;6.05;100.00;102698.81;4105561;29;20082;-71
2021/12/15 07:01:01;;;;;;;17.90;9.77;;;6.80;99.90;;;5.67;100.00;102696.44;4105530;28;20487;-70
2021/12/15 07:03:02;;;;;;;15.48;9.50;;;6.70;99.90;;;5.52;100.00;102703.28;4103871;28;20094;-71
2021/12/15 07:05:07;;;;;;;14.52;8.98;;;6.60;99.90;;;5.45;100.00;102696.63;4103888;28;20055;-70
2021/12/15 07:07:08;;;;;;;13.63;7.90;;;6.50;99.90;;;5.64;100.00;102705.28;4104586;28;20035;-70
2021/12/15 07:09:09;;;;;;;12.57;7.88;;;6.60;99.90;;;5.70;100.00;102701.50;4120269;28;20042;-70
2021/12/15 07:11:10;;;;;;;13.52;7.90;;;6.50;99.90;;;5.63;100.00;102700.13;4105346;28;20031;-70
2021/12/15 07:13:14;;;;;;;15.32;8.77;;;6.50;99.90;;;5.51;100.00;102697.19;4105426;29;20118;-70
2021/12/15 07:15:16;;;;;;;16.05;8.98;;;6.50;99.90;;;5.43;100.00;102698.50;4120195;28;20035;-70
2021/12/15 07:17:22;;;;;;;12.63;8.13;;;6.50;99.90;;;5.48;100.00;102707.81;4120202;28;20023;-71
2021/12/15 07:21:35;;;;;;;14.30;8.63;;;6.40;99.90;;;5.40;100.00;102712.59;4104526;28;20086;-71
2021/12/15 07:23:37;;;;;;;16.48;8.43;;;6.30;99.90;;;5.40;100.00;102712.59;4105162;28;20035;-71
2021/12/15 07:25:41;;;;;;;15.00;8.75;;;6.40;99.90;;;5.42;100.00;102708.09;4119386;28;20027;-71
2021/12/15 07:27:42;;;;;;;11.95;7.72;;;6.40;99.90;;;5.60;100.00;102719.44;4103841;28;20035;-70
2021/12/15 07:29:43;;;;;;;13.15;7.82;;;6.40;99.90;;;5.66;100.00;102718.28;4104901;28;20027;-71
2021/12/15 07:31:44;;;;;;;12.30;7.55;;;6.40;99.90;;;5.71;100.00;102724.97;4104869;28;20380;-71
2021/12/15 07:33:46;;;;;;;18.02;9.05;;;6.50;99.90;;;5.72;100.00;102723.22;4104514;28;20031;-70
2021/12/15 07:35:47;;;;;;;13.05;8.00;;;6.50;99.90;;;5.62;100.00;102719.34;4104767;29;20407;-71
2021/12/15 07:37:48;;;;;;;11.80;7.78;;;6.50;99.90;;;5.74;100.00;102727.44;4104854;29;20039;-70
2021/12/15 07:39:58;;;;;;;13.50;8.57;;;6.50;99.90;;;5.81;100.00;102726.22;4104458;28;20039;-71
2021/12/15 07:42:08;;;;;;;14.45;8.05;;;6.60;99.90;;;5.92;100.00;102728.34;4102850;29;20035;-70
2021/12/15 07:44:09;;;;;;;12.07;8.15;;;6.60;99.90;;;5.90;100.00;102724.94;4104532;28;20023;-71
2021/12/15 07:46:12;;;;;;;18.95;7.65;;;6.60;99.90;;;5.69;100.00;102726.84;4104736;29;20399;-71
2021/12/15 07:48:16;;;;;;;11.48;7.30;;;6.70;99.90;;;5.70;100.00;102733.78;4119019;28;20054;-70
2021/12/15 07:50:19;;;;;;;15.27;8.65;;;6.60;99.90;;;5.91;100.00;102737.94;4119390;28;20486;-71
2021/12/15 07:52:21;;;;;;;14.45;8.02;;;6.70;99.90;;;5.87;100.00;102741.66;4103215;29;20126;-71
2021/12/15 07:54:21;;;;;;;9.90;6.10;;;6.60;99.90;;;5.56;100.00;102729.22;4119563;28;20033;-71
2021/12/15 07:56:22;;;;;;;9.77;6.40;;;6.50;99.90;;;5.50;100.00;102737.38;4104603;28;20062;-72
2021/12/15 07:58:26;;;;;;;8.30;6.25;;;6.40;99.90;;;5.67;100.00;102744.41;4118366;28;20062;-73
2021/12/15 08:00:27;;;;;;;11.40;7.13;;;6.40;99.90;;;5.66;100.00;102736.63;4119627;28;20479;-73
2021/12/15 08:02:28;;;;;;;15.00;6.78;;;6.40;99.90;;;5.57;100.00;102746.63;4104389;28;20034;-73
2021/12/15 08:04:29;;;;;;;10.02;6.07;;;6.50;99.90;;;5.55;100.00;102756.31;4119243;28;20057;-74
2021/12/15 08:06:30;;;;;;;12.95;7.53;;;6.40;99.90;;;5.58;100.00;102740.44;4119198;28;20113;-73
2021/12/15 08:08:32;;;;;;;10.05;6.90;;;6.50;99.90;;;5.58;100.00;102752.72;4104884;28;20114;-73
2021/12/15 08:10:34;;;;;;;10.27;7.50;;;6.50;99.90;;;5.68;100.00;102746.09;4104496;28;20030;-74
2021/12/15 08:12:36;;;;;;;13.45;7.60;;;6.50;99.90;;;5.77;100.00;102755.25;4104173;29;20035;-73
2021/12/15 08:14:38;;;;;;;11.85;6.40;;;6.50;99.90;;;5.67;100.00;102754.03;4119893;28;20127;-74
2021/12/15 08:16:39;;;;;;;9.95;6.60;;;6.50;99.90;;;5.65;100.00;102753.25;4120074;28;20034;-73
2021/12/15 08:18:41;;;;;;;11.32;7.35;;;6.60;99.90;;;5.73;100.00;102753.72;4119594;28;20034;-73
2021/12/15 08:20:43;;;;;;;10.10;7.07;;;6.50;99.90;;;5.72;100.00;102752.03;4120175;28;20027;-73
2021/12/15 08:22:44;;;;;;;13.63;7.47;;;6.60;99.90;;;5.67;100.00;102761.88;4104774;28;20427;-73
2021/12/15 08:24:45;;;;;;;10.00;6.57;;;6.50;99.90;;;5.60;100.00;102769.19;4120166;28;20031;-73
2021/12/15 08:26:46;;;;;;;9.52;6.90;;;6.40;99.90;;;5.57;100.00;102746.63;4127693;28;20073;-73
2021/12/15 08:28:48;;;;;;;14.05;6.82;;;6.50;99.90;;;5.43;100.00;102756.94;4135743;28;20034;-73
2021/12/15 08:30:53;;;;;;;11.38;7.70;;;6.40;99.90;;;5.45;100.00;102759.44;4103865;29;20139;-73
2021/12/15 08:32:59;;;;;;;13.52;8.07;;;6.50;99.90;;;5.38;100.00;102761.50;4103587;28;20035;-74
2021/12/15 08:35:00;;;;;;;11.95;8.23;;;6.40;99.90;;;5.58;100.00;102760.56;4101452;28;20027;-71
2021/12/15 08:37:02;;;;;;;12.95;8.82;;;6.40;99.90;;;5.68;100.00;102764.41;4103439;29;20035;-71
2021/12/15 08:39:06;;;;;;;10.32;7.63;;;6.50;99.90;;;5.65;100.00;102763.72;4118927;28;20033;-71
2021/12/15 08:41:16;;;;;;;11.00;8.02;;;6.40;99.90;;;5.69;100.00;102758.25;4104634;28;20501;-71
2021/12/15 08:43:17;;;;;;;13.07;7.78;;;6.50;99.90;;;5.71;100.00;102764.25;4119010;28;20030;-71
2021/12/15 08:45:19;;;;;;;12.30;7.57;;;6.60;99.90;;;5.79;100.00;102756.91;4101387;29;20110;-73
2021/12/15 08:47:21;;;;;;;17.67;7.53;;;6.60;99.90;;;5.84;100.00;102769.75;4119508;28;20034;-73
2021/12/15 08:49:23;;;;;;;13.60;8.25;;;6.60;99.90;;;5.81;100.00;102769.91;4104167;29;20078;-73
2021/12/15 08:51:27;;;;;;;9.63;7.30;;;6.90;99.90;;;5.92;100.00;102772.84;4102802;28;20610;-73
2021/12/15 08:53:28;;;;;;;17.15;8.45;;;6.70;99.90;;;5.84;100.00;102775.84;4103123;29;20539;-74
2021/12/15 08:55:31;;;;;;;13.45;7.22;;;6.70;99.90;;;5.89;100.00;102783.47;4118804;28;20113;-73
2021/12/15 08:57:32;;;;;;;11.82;7.50;;;6.70;99.90;;;5.90;100.00;102778.19;4119144;28;20108;-74
2021/12/15 08:59:33;;;;;;;9.27;6.78;;;6.70;99.90;;;5.86;100.00;102781.88;4118478;28;20035;-74
2021/12/15 09:01:35;;;;;;;11.82;7.70;;;6.70;99.90;;;5.93;100.00;102772.78;4101176;29;20102;-73
2021/12/15 09:03:38;;;;;;;12.75;7.32;;;6.70;99.90;;;5.93;100.00;102787.66;4102620;28;20062;-74
2021/12/15 09:05:42;;;;;;;10.65;7.05;;;6.70;99.90;;;5.88;100.00;102781.81;4102691;29;20052;-73
2021/12/15 09:07:44;;;;;;;13.75;7.88;;;6.70;99.90;;;5.86;100.00;102781.03;4117990;28;20045;-71
2021/12/15 09:09:45;;;;;;;12.43;7.28;;;6.80;99.90;;;5.99;100.00;102782.97;4102466;28;20082;-71
2021/12/15 09:11:46;;;;;;;12.85;7.82;;;6.80;99.90;;;5.96;100.00;102788.34;4104089;28;20427;-71
2021/12/15 09:13:50;;;;;;;11.38;7.85;;;6.80;99.90;;;5.92;100.00;102778.09;4125307;28;20066;-71